createdAt,value
2018-03-19T00:02:13.970Z,39.90
2018-03-19T00:04:41.337Z,40.39
2018-03-19T00:07:07.908Z,40.73
2018-03-19T00:09:34.141Z,40.68
2018-03-19T00:12:00.451Z,40.27
2018-03-19T00:14:26.777Z,40.17
2018-03-19T00:16:53.006Z,39.82
2018-03-19T00:19:19.268Z,40.27
2018-03-19T00:21:45.625Z,40.30
2018-03-19T00:24:11.915Z,39.91
2018-03-19T00:26:38.204Z,39.70
2018-03-19T00:29:04.648Z,39.83
2018-03-19T00:31:30.931Z,40.33
2018-03-19T00:33:57.313Z,40.25
2018-03-19T00:36:23.814Z,40.27
2018-03-19T00:38:50.294Z,39.98
2018-03-19T00:41:16.565Z,40.90
2018-03-19T00:43:43.070Z,40.87
2018-03-19T00:46:09.604Z,40.15
2018-03-19T00:48:35.959Z,40.32
2018-03-19T00:51:02.472Z,40.29
2018-03-19T00:53:28.748Z,40.35
2018-03-19T00:55:55.016Z,40.68
2018-03-19T00:58:21.296Z,40.86
2018-03-19T01:00:47.560Z,41.10
2018-03-19T01:03:13.829Z,40.96
2018-03-19T01:05:40.072Z,41.05
2018-03-19T01:08:06.336Z,40.66
2018-03-19T01:10:32.593Z,40.81
2018-03-19T01:12:58.840Z,40.82
2018-03-19T01:15:25.076Z,41.08
2018-03-19T01:17:51.344Z,41.19
2018-03-19T01:20:17.587Z,41.40
2018-03-19T01:22:43.824Z,40.99
2018-03-19T01:25:10.067Z,40.91
2018-03-19T01:27:36.308Z,40.72
2018-03-19T01:30:02.607Z,41.04
2018-03-19T01:32:28.837Z,40.91
2018-03-19T01:34:55.112Z,40.82
2018-03-19T01:37:21.351Z,40.89
2018-03-19T01:39:47.615Z,40.80
2018-03-19T01:42:13.844Z,40.86
2018-03-19T01:44:40.078Z,41.19
2018-03-19T01:47:06.333Z,41.12
2018-03-19T01:49:32.552Z,41.41
2018-03-19T01:51:58.804Z,41.71
2018-03-19T01:54:25.044Z,41.20
2018-03-19T01:56:51.342Z,41.45
2018-03-19T01:59:17.577Z,41.35
2018-03-19T02:01:43.856Z,41.45
2018-03-19T02:04:10.088Z,41.48
2018-03-19T02:06:36.332Z,41.94
2018-03-19T02:09:02.635Z,41.89
2018-03-19T02:11:28.868Z,41.77
2018-03-19T02:13:55.150Z,41.70
2018-03-19T02:16:21.392Z,41.77
2018-03-19T02:18:47.660Z,41.88
2018-03-19T02:21:13.900Z,41.99
2018-03-19T02:23:40.160Z,42.18
2018-03-19T02:26:06.395Z,42.48
2018-03-19T02:28:32.627Z,42.42
2018-03-19T02:30:58.886Z,42.57
2018-03-19T02:33:25.132Z,42.41
2018-03-19T02:35:51.404Z,42.46
2018-03-19T02:38:17.632Z,42.64
2018-03-19T02:40:44.139Z,42.29
2018-03-19T02:43:10.733Z,42.86
2018-03-19T02:45:37.036Z,42.61
2018-03-19T02:48:04.364Z,42.63
2018-03-19T02:50:30.593Z,42.59
2018-03-19T02:52:56.846Z,42.74
2018-03-19T02:55:23.120Z,42.86
2018-03-19T02:57:49.385Z,42.67
2018-03-19T03:00:15.641Z,42.73
2018-03-19T03:02:41.908Z,42.52
2018-03-19T03:05:08.159Z,42.72
2018-03-19T03:07:34.438Z,42.80
2018-03-19T03:10:00.674Z,43.17
2018-03-19T03:12:26.935Z,42.77
2018-03-19T03:14:53.171Z,42.81
2018-03-19T03:17:19.404Z,42.31
2018-03-19T03:19:45.656Z,42.41
2018-03-19T03:22:11.896Z,42.80
2018-03-19T03:24:38.164Z,43.02
2018-03-19T03:27:04.392Z,42.97
2018-03-19T03:29:30.666Z,42.83
2018-03-19T03:31:56.894Z,43.00
2018-03-19T03:34:23.146Z,43.25
2018-03-19T03:36:49.403Z,43.15
2018-03-19T03:39:15.660Z,42.82
2018-03-19T03:41:41.917Z,42.61
2018-03-19T03:44:08.191Z,42.88
2018-03-19T03:46:34.469Z,42.60
2018-03-19T03:49:00.705Z,42.92
2018-03-19T03:51:26.996Z,43.33
2018-03-19T03:53:53.228Z,43.01
2018-03-19T03:56:19.497Z,42.98
2018-03-19T03:58:45.767Z,43.28
2018-03-19T04:01:12.020Z,42.87
2018-03-19T04:03:38.249Z,43.18
2018-03-19T04:06:04.571Z,43.18
2018-03-19T04:08:30.838Z,43.02
2018-03-19T04:10:57.089Z,43.29
2018-03-19T04:13:23.356Z,42.88
2018-03-19T04:15:49.612Z,42.74
2018-03-19T04:18:15.880Z,42.50
2018-03-19T04:20:42.113Z,42.79
2018-03-19T04:23:08.368Z,42.72
2018-03-19T04:25:34.596Z,43.17
2018-03-19T04:28:00.856Z,42.90
2018-03-19T04:30:27.113Z,42.83
2018-03-19T04:32:53.340Z,42.99
2018-03-19T04:35:19.596Z,43.58
2018-03-19T04:37:45.836Z,43.50
2018-03-19T04:40:12.086Z,43.42
2018-03-19T04:42:38.351Z,43.62
2018-03-19T04:45:04.611Z,43.66
2018-03-19T04:47:30.883Z,43.81
2018-03-19T04:49:57.132Z,43.91
2018-03-19T04:52:23.364Z,43.90
2018-03-19T04:54:49.595Z,43.82
2018-03-19T04:57:15.854Z,44.28
2018-03-19T04:59:42.088Z,43.98
2018-03-19T05:02:08.344Z,44.08
2018-03-19T05:04:34.601Z,44.57
2018-03-19T05:07:00.869Z,44.35
2018-03-19T05:09:27.118Z,44.37
2018-03-19T05:11:53.364Z,45.00
2018-03-19T05:14:19.614Z,45.60
2018-03-19T05:16:45.851Z,46.05
2018-03-19T05:19:12.101Z,46.04
2018-03-19T05:21:38.344Z,46.46
2018-03-19T05:24:04.616Z,46.61
2018-03-19T05:26:30.900Z,46.55
2018-03-19T05:28:57.161Z,46.66
2018-03-19T05:31:23.448Z,46.74
2018-03-19T05:33:49.752Z,46.40
2018-03-19T05:36:16.004Z,46.22
2018-03-19T05:38:42.249Z,46.12
2018-03-19T05:41:08.512Z,45.80
2018-03-19T05:43:34.748Z,45.56
2018-03-19T05:46:01.031Z,45.54
2018-03-19T05:48:27.300Z,45.57
2018-03-19T05:50:53.603Z,45.15
2018-03-19T05:53:19.816Z,44.88
2018-03-19T05:55:46.092Z,44.57
2018-03-19T05:58:12.348Z,43.43
2018-03-19T06:00:38.576Z,42.91
2018-03-19T06:03:04.843Z,42.44
2018-03-19T06:05:31.076Z,42.26
2018-03-19T06:07:57.328Z,41.87
2018-03-19T06:10:23.549Z,41.53
2018-03-19T06:12:49.805Z,40.76
2018-03-19T06:15:16.044Z,40.49
2018-03-19T06:17:42.296Z,40.15
2018-03-19T06:20:08.537Z,39.84
2018-03-19T06:22:34.775Z,39.61
2018-03-19T06:25:01.020Z,39.37
2018-03-19T06:27:27.248Z,39.18
2018-03-19T06:29:53.489Z,38.98
2018-03-19T06:32:19.725Z,38.45
2018-03-19T06:34:45.971Z,38.59
2018-03-19T06:37:12.192Z,38.07
2018-03-19T06:39:38.440Z,37.92
2018-03-19T06:42:04.665Z,38.28
2018-03-19T06:44:30.923Z,37.64
2018-03-19T06:46:57.183Z,37.70
2018-03-19T06:49:23.452Z,37.44
2018-03-19T06:51:49.696Z,36.88
2018-03-19T06:54:15.955Z,36.39
2018-03-19T06:56:42.252Z,35.38
2018-03-19T06:59:08.479Z,35.33
2018-03-19T07:01:34.738Z,34.59
2018-03-19T07:04:00.975Z,34.01
2018-03-19T07:06:27.247Z,33.77
2018-03-19T07:08:53.489Z,32.75
2018-03-19T07:11:19.735Z,32.20
2018-03-19T07:13:45.959Z,31.92
2018-03-19T07:16:12.184Z,32.00
2018-03-19T07:18:38.432Z,31.58
2018-03-19T07:21:04.679Z,31.42
2018-03-19T07:23:30.944Z,31.67
2018-03-19T07:25:57.177Z,31.68
2018-03-19T07:28:23.443Z,30.96
2018-03-19T07:30:49.679Z,30.39
2018-03-19T07:33:15.952Z,30.17
2018-03-19T07:35:42.215Z,29.77
2018-03-19T07:38:08.457Z,29.12
2018-03-19T07:40:34.717Z,29.00
2018-03-19T07:43:00.947Z,27.96
2018-03-19T07:45:27.212Z,27.28
2018-03-19T07:47:53.453Z,25.99
2018-03-19T07:50:19.703Z,25.06
2018-03-19T07:52:45.932Z,24.31
2018-03-19T07:55:12.181Z,23.22
2018-03-19T07:57:38.403Z,22.69
2018-03-19T08:00:04.668Z,22.46
2018-03-19T08:02:30.908Z,21.81
2018-03-19T08:04:57.140Z,21.03
2018-03-19T08:07:23.392Z,20.02
2018-03-19T08:09:49.624Z,19.46
2018-03-19T08:12:15.931Z,18.42
2018-03-19T08:14:42.129Z,18.26
2018-03-19T08:17:08.373Z,17.66
2018-03-19T08:19:34.599Z,17.35
2018-03-19T08:22:00.843Z,16.92
2018-03-19T08:24:27.059Z,16.37
2018-03-19T08:27:00.488Z,15.71
2018-03-19T08:29:26.716Z,15.70
2018-03-19T08:31:52.941Z,15.64
2018-03-19T08:34:19.190Z,14.96
2018-03-19T08:36:45.421Z,14.92
2018-03-19T08:39:11.678Z,14.63
2018-03-19T08:41:37.924Z,15.14
2018-03-19T08:44:04.228Z,14.87
2018-03-19T08:46:30.468Z,14.66
2018-03-19T08:48:56.729Z,14.59
2018-03-19T08:51:22.952Z,14.20
2018-03-19T08:53:49.182Z,14.50
2018-03-19T08:56:15.415Z,14.59
2018-03-19T08:58:41.640Z,14.57
2018-03-19T09:01:07.977Z,14.91
2018-03-19T09:03:34.200Z,14.50
2018-03-19T09:06:00.481Z,14.61
2018-03-19T09:08:26.732Z,14.77
2018-03-19T09:10:52.980Z,14.11
2018-03-19T09:13:19.251Z,14.46
2018-03-19T09:15:45.512Z,14.32
2018-03-19T09:18:11.763Z,14.35
2018-03-19T09:20:37.990Z,13.95
2018-03-19T09:23:04.262Z,14.37
2018-03-19T09:25:30.549Z,13.79
2018-03-19T09:27:56.844Z,14.55
2018-03-19T09:30:23.100Z,14.08
2018-03-19T09:32:49.376Z,14.12
2018-03-19T09:35:15.692Z,13.72
2018-03-19T09:37:41.913Z,14.00
2018-03-19T09:40:08.168Z,14.76
2018-03-19T09:42:34.480Z,14.10
2018-03-19T09:45:00.724Z,14.26
2018-03-19T09:47:26.959Z,14.30
2018-03-19T09:49:53.216Z,14.36
2018-03-19T09:52:19.460Z,14.34
2018-03-19T09:54:45.684Z,14.47
2018-03-19T09:57:11.937Z,14.98
2018-03-19T09:59:38.168Z,14.12
2018-03-19T10:02:04.443Z,14.37
2018-03-19T10:04:30.675Z,13.89
2018-03-19T10:06:56.926Z,14.21
2018-03-19T10:09:23.158Z,14.38
2018-03-19T10:11:49.430Z,14.55
2018-03-19T10:14:15.660Z,14.43
2018-03-19T10:16:41.892Z,14.56
2018-03-19T10:19:08.148Z,14.73
2018-03-19T10:21:34.400Z,14.66
2018-03-19T10:24:00.652Z,14.22
2018-03-19T10:26:26.892Z,14.57
2018-03-19T10:28:53.168Z,14.24
2018-03-19T10:31:19.413Z,14.71
2018-03-19T10:33:45.684Z,14.62
2018-03-19T10:36:11.920Z,14.34
2018-03-19T10:38:38.217Z,14.52
2018-03-19T10:41:04.489Z,13.91
2018-03-19T10:43:30.724Z,13.98
2018-03-19T10:45:56.968Z,14.28
2018-03-19T10:48:23.204Z,14.26
2018-03-19T10:50:49.465Z,13.89
2018-03-19T10:53:15.701Z,13.78
2018-03-19T10:55:41.955Z,14.20
2018-03-19T10:58:08.212Z,14.00
2018-03-19T11:00:34.478Z,13.95
2018-03-19T11:03:05.709Z,13.89
2018-03-19T11:05:31.997Z,13.87
2018-03-19T11:08:04.216Z,13.33
2018-03-19T11:10:30.464Z,12.99
2018-03-19T11:12:56.741Z,12.80
2018-03-19T11:15:24.146Z,12.69
2018-03-19T11:17:50.440Z,12.35
2018-03-19T11:20:16.692Z,12.56
2018-03-19T11:22:42.956Z,11.98
2018-03-19T11:25:09.208Z,12.47
2018-03-19T11:27:35.508Z,12.48
2018-03-19T11:30:01.785Z,11.43
2018-03-19T11:32:28.089Z,11.31
2018-03-19T11:34:54.368Z,11.34
2018-03-19T11:37:20.614Z,10.99
2018-03-19T11:39:46.868Z,11.43
2018-03-19T11:42:13.109Z,11.51
2018-03-19T11:44:39.376Z,11.02
2018-03-19T11:47:05.624Z,10.82
2018-03-19T11:49:31.863Z,11.28
2018-03-19T11:51:58.114Z,11.50
2018-03-19T11:54:24.361Z,11.03
2018-03-19T11:56:50.642Z,10.82
2018-03-19T11:59:16.891Z,10.73
2018-03-19T12:01:43.136Z,9.85
2018-03-19T12:04:09.365Z,9.91
2018-03-19T12:06:35.618Z,9.82
2018-03-19T12:09:01.865Z,9.99
2018-03-19T12:11:28.095Z,9.64
2018-03-19T12:13:54.357Z,9.60
2018-03-19T12:16:20.576Z,10.14
2018-03-19T12:18:46.869Z,9.90
2018-03-19T12:21:13.115Z,10.02
2018-03-19T12:23:39.416Z,10.71
2018-03-19T12:26:05.667Z,9.80
2018-03-19T12:28:31.940Z,9.91
2018-03-19T12:30:58.155Z,9.46
2018-03-19T12:33:24.400Z,9.45
2018-03-19T12:35:50.675Z,9.52
2018-03-19T12:38:16.957Z,9.94
2018-03-19T12:40:43.233Z,9.84
2018-03-19T12:43:09.489Z,9.46
2018-03-19T12:45:35.740Z,9.69
2018-03-19T12:48:01.964Z,9.74
2018-03-19T12:50:28.229Z,10.50
2018-03-19T12:52:54.468Z,11.40
2018-03-19T12:55:20.718Z,10.79
2018-03-19T12:57:46.980Z,10.65
2018-03-19T13:00:13.224Z,11.19
2018-03-19T13:02:39.521Z,11.51
2018-03-19T13:05:05.798Z,12.83
2018-03-19T13:07:32.052Z,12.01
2018-03-19T13:09:58.291Z,10.97
2018-03-19T13:12:24.563Z,10.52
2018-03-19T13:14:50.810Z,10.88
2018-03-19T13:17:17.096Z,10.26
2018-03-19T13:19:43.349Z,9.89
2018-03-19T13:22:09.588Z,9.65
2018-03-19T13:24:35.890Z,10.75
2018-03-19T13:27:02.117Z,10.08
2018-03-19T13:29:28.384Z,9.73
2018-03-19T13:31:54.648Z,10.25
2018-03-19T13:34:20.898Z,9.41
2018-03-19T13:36:47.132Z,9.15
2018-03-19T13:39:13.372Z,8.55
2018-03-19T13:41:39.623Z,8.50
2018-03-19T13:44:05.890Z,8.59
2018-03-19T13:46:32.160Z,8.73
2018-03-19T13:48:58.396Z,8.55
2018-03-19T13:51:24.652Z,8.97
2018-03-19T13:53:50.900Z,8.99
2018-03-19T13:56:17.140Z,8.49
2018-03-19T13:58:43.359Z,8.39
2018-03-19T14:01:09.620Z,8.66
2018-03-19T14:03:35.897Z,8.81
2018-03-19T14:06:02.141Z,8.88
2018-03-19T14:08:28.397Z,8.77
2018-03-19T14:10:54.632Z,8.49
2018-03-19T14:13:20.888Z,9.21
2018-03-19T14:15:47.160Z,9.43
2018-03-19T14:18:13.432Z,9.73
2018-03-19T14:20:39.667Z,9.40
2018-03-19T14:23:05.940Z,10.43
2018-03-19T14:25:32.208Z,12.52
2018-03-19T14:27:58.523Z,13.18
2018-03-19T14:30:24.751Z,14.06
2018-03-19T14:32:51.002Z,14.68
2018-03-19T14:35:17.260Z,15.92
2018-03-19T14:37:43.492Z,15.57
2018-03-19T14:40:09.748Z,14.13
2018-03-19T14:42:35.980Z,12.36
2018-03-19T14:45:02.230Z,12.13
2018-03-19T14:47:28.473Z,10.90
2018-03-19T14:49:54.746Z,10.00
2018-03-19T14:52:20.986Z,10.31
2018-03-19T14:54:47.260Z,10.19
2018-03-19T14:57:13.511Z,10.30
2018-03-19T14:59:39.760Z,10.28
2018-03-19T15:02:06.062Z,10.14
2018-03-19T15:04:32.332Z,9.92
2018-03-19T15:06:58.599Z,9.79
2018-03-19T15:09:24.831Z,10.18
2018-03-19T15:11:51.085Z,9.92
2018-03-19T15:14:17.336Z,10.46
2018-03-19T15:16:43.604Z,10.81
2018-03-19T15:19:09.841Z,11.23
2018-03-19T15:21:36.063Z,11.09
2018-03-19T15:24:02.328Z,10.87
2018-03-19T15:26:28.555Z,11.03
2018-03-19T15:28:54.820Z,11.08
2018-03-19T15:31:21.090Z,11.37
2018-03-19T15:33:47.342Z,11.48
2018-03-19T15:36:13.604Z,12.53
2018-03-19T15:38:39.876Z,14.02
2018-03-19T15:41:06.105Z,15.97
2018-03-19T15:43:32.342Z,17.29
2018-03-19T15:45:58.605Z,17.63
2018-03-19T15:48:24.840Z,17.12
2018-03-19T15:50:51.102Z,16.41
2018-03-19T15:53:17.333Z,16.52
2018-03-19T15:55:43.580Z,16.01
2018-03-19T15:58:09.830Z,17.46
2018-03-19T16:00:36.097Z,17.83
2018-03-19T16:03:02.336Z,17.74
2018-03-19T16:05:28.571Z,17.48
2018-03-19T16:07:54.841Z,17.90
2018-03-19T16:10:21.072Z,18.66
2018-03-19T16:12:47.332Z,19.32
2018-03-19T16:15:13.569Z,20.69
2018-03-19T16:17:39.841Z,21.22
2018-03-19T16:20:06.065Z,22.01
2018-03-19T16:22:32.336Z,22.24
2018-03-19T16:24:58.564Z,22.68
2018-03-19T16:27:24.811Z,22.80
2018-03-19T16:29:51.096Z,22.80
2018-03-19T16:32:17.320Z,23.44
2018-03-19T16:34:43.580Z,23.96
2018-03-19T16:37:09.816Z,23.86
2018-03-19T16:39:36.068Z,22.92
2018-03-19T16:42:02.324Z,23.34
2018-03-19T16:44:28.542Z,23.87
2018-03-19T16:46:54.824Z,23.90
2018-03-19T16:49:21.061Z,24.87
2018-03-19T16:51:47.333Z,23.56
2018-03-19T16:54:13.553Z,24.60
2018-03-19T16:56:39.803Z,24.75
2018-03-19T16:59:06.020Z,25.15
2018-03-19T17:01:32.286Z,26.11
2018-03-19T17:03:58.520Z,26.32
2018-03-19T17:06:24.764Z,26.29
2018-03-19T17:08:51.023Z,26.08
2018-03-19T17:11:17.257Z,26.78
2018-03-19T17:13:43.525Z,27.33
2018-03-19T17:16:09.780Z,27.37
2018-03-19T17:18:36.041Z,27.71
2018-03-19T17:21:02.301Z,27.64
2018-03-19T17:23:28.572Z,27.72
2018-03-19T17:25:54.836Z,28.55
2018-03-19T17:28:21.092Z,28.59
2018-03-19T17:30:47.343Z,29.00
2018-03-19T17:33:13.592Z,29.24
2018-03-19T17:35:39.860Z,28.78
2018-03-19T17:38:06.108Z,28.24
2018-03-19T17:40:32.388Z,29.12
2018-03-19T17:42:58.649Z,28.66
2018-03-19T17:45:24.920Z,29.28
2018-03-19T17:47:51.152Z,28.66
2018-03-19T17:50:17.383Z,28.54
2018-03-19T17:52:43.640Z,29.11
2018-03-19T17:55:09.880Z,29.43
2018-03-19T17:57:36.128Z,29.25
2018-03-19T18:00:02.433Z,29.54
2018-03-19T18:02:28.668Z,29.48
2018-03-19T18:04:54.944Z,30.01
2018-03-19T18:07:21.208Z,29.99
2018-03-19T18:09:47.449Z,30.07
2018-03-19T18:12:13.709Z,30.71
2018-03-19T18:14:39.944Z,31.06
2018-03-19T18:17:06.218Z,30.90
2018-03-19T18:19:32.475Z,30.66
2018-03-19T18:21:58.779Z,30.98
2018-03-19T18:24:25.015Z,31.34
2018-03-19T18:26:51.341Z,30.55
2018-03-19T18:29:17.596Z,30.25
2018-03-19T18:31:43.829Z,30.47
2018-03-19T18:34:10.122Z,30.58
2018-03-19T18:36:36.396Z,30.14
2018-03-19T18:39:02.753Z,30.28
2018-03-19T18:41:28.996Z,30.52
2018-03-19T18:43:55.297Z,30.82
2018-03-19T18:46:21.556Z,31.77
2018-03-19T18:48:47.821Z,32.54
2018-03-19T18:51:14.273Z,31.68
2018-03-19T18:53:40.541Z,31.67
2018-03-19T18:56:06.819Z,31.92
2018-03-19T18:58:33.053Z,32.27
2018-03-19T19:00:59.356Z,31.91
2018-03-19T19:03:25.667Z,32.05
2018-03-19T19:05:51.951Z,32.07
2018-03-19T19:08:18.180Z,33.33
2018-03-19T19:10:44.440Z,33.72
2018-03-19T19:13:10.672Z,32.68
2018-03-19T19:15:36.870Z,32.62
2018-03-19T19:18:03.132Z,33.13
2018-03-19T19:20:29.379Z,33.01
2018-03-19T19:22:55.664Z,33.31
2018-03-19T19:25:21.921Z,33.32
2018-03-19T19:27:48.184Z,33.58
2018-03-19T19:30:14.444Z,33.78
2018-03-19T19:32:40.708Z,33.74
2018-03-19T19:35:06.960Z,33.92
2018-03-19T19:37:33.232Z,34.32
2018-03-19T19:39:59.464Z,34.56
2018-03-19T19:42:25.717Z,35.49
2018-03-19T19:44:51.968Z,36.60
2018-03-19T19:47:18.224Z,37.73
2018-03-19T19:49:44.482Z,37.68
2018-03-19T19:52:10.716Z,37.52
2018-03-19T19:54:36.993Z,37.63
2018-03-19T19:57:03.261Z,37.19
2018-03-19T19:59:29.532Z,37.04
2018-03-19T20:01:55.813Z,36.91
2018-03-19T20:04:22.084Z,38.12
2018-03-19T20:06:48.344Z,37.88
2018-03-19T20:09:14.586Z,37.92
2018-03-19T20:11:40.853Z,37.94
2018-03-19T20:14:07.100Z,38.38
2018-03-19T20:16:33.388Z,38.68
2018-03-19T20:18:59.647Z,38.96
2018-03-19T20:21:26.048Z,39.03
2018-03-19T20:23:52.417Z,39.06
2018-03-19T20:26:18.745Z,38.41
2018-03-19T20:28:44.988Z,39.10
2018-03-19T20:31:11.273Z,39.37
2018-03-19T20:33:37.549Z,39.00
2018-03-19T20:36:03.903Z,39.12
2018-03-19T20:38:30.192Z,38.58
2018-03-19T20:40:56.910Z,38.51
2018-03-19T20:43:23.177Z,39.25
2018-03-19T20:45:49.465Z,38.74
2018-03-19T20:48:15.728Z,38.98
2018-03-19T20:50:42.002Z,39.50
2018-03-19T20:53:08.273Z,40.18
2018-03-19T20:55:34.545Z,41.47
2018-03-19T20:58:00.832Z,41.90
2018-03-19T21:00:27.091Z,41.53
2018-03-19T21:02:53.351Z,41.02
2018-03-19T21:05:19.636Z,40.63
2018-03-19T21:07:45.885Z,41.03
2018-03-19T21:10:12.200Z,41.42
2018-03-19T21:12:38.469Z,41.35
2018-03-19T21:15:04.740Z,41.50
2018-03-19T21:17:31.004Z,42.04
2018-03-19T21:19:57.347Z,42.77
2018-03-19T21:22:23.599Z,42.77
2018-03-19T21:24:49.857Z,43.05
2018-03-19T21:27:16.200Z,43.08
2018-03-19T21:29:42.441Z,43.17
2018-03-19T21:32:08.672Z,42.99
2018-03-19T21:34:34.939Z,42.55
2018-03-19T21:37:01.208Z,43.05
2018-03-19T21:39:27.497Z,42.82
2018-03-19T21:41:54.760Z,42.77
2018-03-19T21:44:21.020Z,42.56
2018-03-19T21:46:47.277Z,42.46
2018-03-19T21:49:13.568Z,42.67
2018-03-19T21:51:39.837Z,43.45
2018-03-19T21:54:06.107Z,43.61
2018-03-19T21:56:32.428Z,43.37
2018-03-19T21:58:58.672Z,43.53
2018-03-19T22:01:25.158Z,43.65
2018-03-19T22:03:51.425Z,43.65
2018-03-19T22:06:17.735Z,43.60
2018-03-19T22:08:43.988Z,43.27
2018-03-19T22:11:10.251Z,42.98
2018-03-19T22:13:36.615Z,43.62
2018-03-19T22:16:02.920Z,43.06
2018-03-19T22:18:29.277Z,43.81
2018-03-19T22:20:55.560Z,43.89
2018-03-19T22:23:21.825Z,43.50
2018-03-19T22:25:48.278Z,43.87
2018-03-19T22:28:14.551Z,44.06
2018-03-19T22:30:40.832Z,44.01
2018-03-19T22:33:07.096Z,44.01
2018-03-19T22:35:33.329Z,45.01
2018-03-19T22:37:59.811Z,45.66
2018-03-19T22:40:26.051Z,45.47
2018-03-19T22:42:52.319Z,45.35
2018-03-19T22:45:18.710Z,44.54
2018-03-19T22:47:44.945Z,44.69
2018-03-19T22:50:11.353Z,44.42
2018-03-19T22:52:37.601Z,43.85
2018-03-19T22:55:03.876Z,44.33
2018-03-19T22:57:30.324Z,43.98
2018-03-19T22:59:56.576Z,44.42
2018-03-19T23:02:22.827Z,45.07
2018-03-19T23:04:55.973Z,45.62
2018-03-19T23:07:22.210Z,46.00
2018-03-19T23:09:48.600Z,45.75
2018-03-19T23:12:14.855Z,46.12
2018-03-19T23:14:41.138Z,45.63
2018-03-19T23:17:07.433Z,45.33
2018-03-19T23:19:33.670Z,45.32
2018-03-19T23:22:00.102Z,45.10
2018-03-19T23:24:26.383Z,45.12
2018-03-19T23:26:52.625Z,45.65
2018-03-19T23:29:18.896Z,46.31
2018-03-19T23:31:45.131Z,46.60
2018-03-19T23:34:11.502Z,46.86
2018-03-19T23:36:37.756Z,46.99
2018-03-19T23:39:04.052Z,46.50
2018-03-19T23:41:30.468Z,45.82
2018-03-19T23:43:56.743Z,45.71
2018-03-19T23:46:23.002Z,44.99
2018-03-19T23:48:49.289Z,45.21
2018-03-19T23:51:15.570Z,45.23
2018-03-19T23:53:41.998Z,45.58
2018-03-19T23:56:08.251Z,45.44
2018-03-19T23:58:34.500Z,46.14
